Latest Weather Observations for Moruya Airport

IDN60901

Issued at 5:01 am EST Monday 20 April 2015 (issued every 10 minutes, with the page automatically refreshed every 10 minutes)

About weather observations | Map of Canberra area stations | Latest observations for Canberra area | Other Formats
Station Details ID: 069148 Name: MORUYA AIRPORT AWS Lat: -35.90 Lon: 150.14 Height: 4.0 m
Data from the previous 72 hours. | See also: Recent months for locations in Aust Capital Territory
Date/Time
EST
Tmp

°C
App
Tmp
°C
Dew
Point
°C
Rel
Hum
%
Delta-T

°C
Wind Press
QNH
hPa
Press
MSL
hPa
Rain
since
9 am
mm
Dir
 
Spd
km/h
Gust
km/h
Spd
kts
Gust
kts
20/05:00am 12.1 5.8 7.6 74 2.2 SSW 30 44 16 24 1028.2 1028.2 -
20/04:54am 12.2 5.5 7.5 73 2.3 SSW 32 41 17 22 1028.2 1028.2 3.8
20/04:43am 12.1 5.8 7.6 74 2.2 SSW 30 44 16 24 1028.3 1028.3 3.8
20/04:30am 11.9 5.3 7.6 75 2.1 SSW 32 41 17 22 1028.2 1028.2 3.8
20/04:08am 11.7 6.3 8.0 78 1.8 SW 26 35 14 19 1028.5 1028.5 3.8
20/04:00am 11.6 5.9 8.3 80 1.6 SW 28 43 15 23 1028.4 1028.4 3.8
20/03:52am 11.5 5.8 8.2 80 1.6 SW 28 44 15 24 1028.2 1028.2 3.8
20/03:30am 11.4 5.7 8.4 82 1.5 SW 28 41 15 22 1028.1 1028.1 3.8
20/03:00am 11.8 6.4 7.9 77 1.9 SSW 26 39 14 21 1028.3 1028.3 3.8
20/02:55am 12.0 6.1 7.7 75 2.1 SSW 28 43 15 23 1028.2 1028.2 3.8
20/02:45am 11.9 6.0 7.4 74 2.2 SSW 28 39 15 21 1028.1 1028.1 3.8
20/02:30am 11.6 5.8 8.1 79 1.7 SW 28 39 15 21 1028.1 1028.1 3.8
20/02:00am 11.2 6.7 8.6 84 1.3 SW 22 30 12 16 1028.4 1028.4 3.8
20/01:30am 11.3 6.5 9.0 86 1.1 SW 24 39 13 21 1028.2 1028.2 3.4
20/01:00am 12.7 7.7 6.5 66 2.9 SW 22 32 12 17 1028.6 1028.6 3.2
20/12:30am 12.5 7.2 7.0 69 2.6 SW 24 35 13 19 1028.4 1028.4 3.2
 
Date/Time
EST
Tmp

°C
App
Tmp
°C
Dew
Point
°C
Rel
Hum
%
Delta-T

°C
Wind Press
QNH
hPa
Press
MSL
hPa
Rain
since
9 am
mm
Dir
 
Spd
km/h
Gust
km/h
Spd
kts
Gust
kts
19/11:30pm 12.8 7.1 6.6 66 3.0 SW 26 37 14 20 1028.8 1028.8 3.2
19/11:00pm 12.8 6.7 6.6 66 2.9 SSW 28 43 15 23 1028.8 1028.8 3.2
19/10:30pm 13.0 7.3 6.6 65 3.1 SSW 26 41 14 22 1028.4 1028.4 3.2
19/10:00pm 12.9 7.2 6.5 65 3.0 SSW 26 43 14 23 1028.0 1028.0 3.2
19/09:30pm 12.9 8.0 6.7 66 3.0 SW 22 33 12 18 1028.2 1028.2 3.2
19/09:00pm 12.8 8.5 7.9 72 2.4 SSW 20 35 11 19 1027.8 1027.8 3.2
19/08:30pm 12.6 9.0 8.5 76 2.0 SW 17 28 9 15 1027.6 1027.6 3.2
19/08:00pm 13.0 8.3 9.1 77 2.0 SSW 24 32 13 17 1026.9 1026.9 3.2
19/07:30pm 13.2 8.2 9.6 79 1.8 SW 26 44 14 24 1026.5 1026.5 3.2
19/07:00pm 13.0 9.6 10.5 85 1.3 SSW 19 33 10 18 1025.8 1025.8 3.2
19/06:30pm 12.0 10.5 12.0 100 0.0 WSW 11 15 6 8 1025.3 1025.3 3.2
19/06:00pm 12.0 10.5 12.0 100 0.0 W 11 15 6 8 1024.8 1024.8 3.2
19/05:30pm 12.1 11.6 12.1 100 0.0 W 6 9 3 5 1024.4 1024.4 3.2
19/05:00pm 12.4 12.0 12.4 100 0.0 WNW 6 9 3 5 1024.2 1024.2 3.2
19/04:30pm 12.6 12.3 12.6 100 0.0 WNW 6 7 3 4 1023.8 1023.8 3.2
19/04:00pm 12.5 11.6 12.5 100 0.0 WNW 9 11 5 6 1023.5 1023.5 2.8
19/03:30pm 12.4 11.4 12.2 99 0.1 W 9 11 5 6 1023.5 1023.5 2.8
19/03:00pm 12.7 12.2 12.5 99 0.1 W 7 11 4 6 1023.1 1023.1 2.6
19/02:30pm 12.9 10.5 11.3 90 0.8 WSW 15 22 8 12 1022.6 1022.6 1.8
19/02:00pm 13.4 11.6 10.9 85 1.3 WSW 11 17 6 9 1022.2 1022.2 1.2
19/01:30pm 14.0 12.5 12.0 88 1.1 SW 11 17 6 9 1021.7 1021.7 1.2
19/01:00pm 13.9 12.2 12.3 90 0.9 WSW 13 20 7 11 1021.5 1021.5 1.0
19/12:30pm 14.5 13.9 13.5 94 0.6 WSW 9 11 5 6 1021.3 1021.3 0.8
19/12:00pm 14.9 13.1 12.0 83 1.6 SW 13 20 7 11 1021.3 1021.3 0.2
19/11:30am 15.3 11.8 10.1 71 2.7 SSW 19 24 10 13 1020.9 1020.9 0.2
19/11:00am 14.2 11.1 12.2 88 1.1 SW 20 26 11 14 1021.0 1021.0 0.2
19/10:30am 15.0 12.0 12.1 83 1.6 SSW 19 28 10 15 1020.6 1020.6 0.0
19/10:00am 16.4 13.5 12.4 77 2.2 SSW 19 28 10 15 1019.9 1019.8 0.0
19/09:30am 16.5 13.6 13.0 80 1.9 S 20 28 11 15 1019.7 1019.6 0.0
19/09:00am 16.7 12.2 12.5 76 2.3 S 28 35 15 19 1019.3 1019.2 1.0
19/08:30am 16.4 12.8 13.1 81 1.8 S 24 33 13 18 1018.9 1018.8 1.0
19/08:00am 16.4 12.9 13.5 83 1.6 S 24 35 13 19 1018.4 1018.3 1.0
19/07:30am 16.3 14.0 14.1 87 1.2 S 19 32 10 17 1018.0 1017.9 1.0
19/07:00am 16.1 14.7 14.5 90 0.9 SSW 15 22 8 12 1017.2 1017.1 1.0
19/06:30am 16.4 14.1 14.6 89 1.0 S 20 30 11 16 1016.3 1016.2 1.0
19/05:30am 16.8 14.3 15.2 90 0.9 S 22 32 12 17 1015.0 1014.9 1.0
19/05:00am 17.1 15.2 14.2 83 1.7 SSW 17 22 9 12 1014.8 1014.7 1.0
19/04:30am 17.3 15.9 14.4 83 1.7 S 15 24 8 13 1014.4 1014.3 1.0
19/04:00am 17.3 14.2 14.6 84 1.6 S 24 32 13 17 1013.7 1013.6 1.0
19/03:30am 17.9 16.0 15.7 87 1.3 S 20 26 11 14 1013.5 1013.4 1.0
19/03:00am 18.3 16.5 16.1 87 1.3 S 20 28 11 15 1013.1 1013.0 1.0
19/02:30am 18.2 16.2 16.5 90 1.0 S 22 33 12 18 1012.9 1012.8 1.0
19/02:00am 19.6 19.8 19.3 98 0.2 SSE 17 30 9 16 1012.9 1012.8 1.0
19/01:30am 19.6 19.7 16.4 82 1.9 WNW 11 20 6 11 1012.2 1012.1 1.0
19/01:00am 19.6 19.8 16.8 84 1.7 WNW 11 19 6 10 1012.0 1011.9 1.0
19/12:30am 19.0 19.7 17.1 89 1.2 WNW 9 15 5 8 1011.7 1011.6 1.0
19/12:00am 18.8 19.7 17.6 93 0.7 WNW 9 17 5 9 1011.4 1011.3 1.0
 
Date/Time
EST
Tmp

°C
App
Tmp
°C
Dew
Point
°C
Rel
Hum
%
Delta-T

°C
Wind Press
QNH
hPa
Press
MSL
hPa
Rain
since
9 am
mm
Dir
 
Spd
km/h
Gust
km/h
Spd
kts
Gust
kts
18/11:30pm 18.3 19.9 18.3 100 0.0 NW 7 11 4 6 1011.5 1011.4 1.0
18/11:00pm 18.3 20.9 18.3 100 0.0 NW 2 7 1 4 1011.5 1011.4 1.0
18/10:30pm 18.5 21.1 18.5 100 0.0 NNW 2 7 1 4 1011.6 1011.5 1.0
18/10:00pm 18.9 22.1 18.9 100 0.0 CALM 0 0 0 0 1011.7 1011.6 1.0
18/09:30pm 19.0 20.5 19.0 100 0.0 N 9 11 5 6 1011.8 1011.7 0.8
18/09:00pm 19.1 20.7 19.1 100 0.0 N 9 13 5 7 1011.7 1011.6 0.8
18/08:30pm 19.2 20.5 19.2 100 0.0 N 11 15 6 8 1011.4 1011.3 0.8
18/08:00pm 19.5 20.9 19.5 100 0.0 N 11 17 6 9 1011.8 1011.7 0.6
18/07:30pm 19.4 22.8 19.4 100 0.0 CALM 0 0 0 0 1011.4 1011.3 0.4
18/07:00pm 19.8 22.3 19.8 100 0.0 N 6 7 3 4 1011.2 1011.1 0.0
18/06:30pm 19.8 22.9 19.6 99 0.1 NNW 2 7 1 4 1010.7 1010.6 0.0
18/06:00pm 19.9 22.1 19.7 99 0.1 NNW 7 7 4 4 1010.4 1010.3 0.0
18/05:30pm 20.4 22.7 19.9 97 0.3 NNW 7 9 4 5 1010.1 1010.0 0.0
18/05:00pm 21.1 23.6 19.9 93 0.8 N 6 7 3 4 1010.4 1010.3 0.0
18/04:30pm 22.3 23.5 19.1 82 2.0 N 11 15 6 8 1010.3 1010.2 0.0
18/04:00pm 21.3 23.1 19.6 90 1.1 NNW 9 11 5 6 1010.5 1010.4 0.0
18/03:30pm 22.0 23.4 19.5 86 1.6 N 11 13 6 7 1010.5 1010.4 0.0
18/03:00pm 21.8 24.0 20.4 92 0.9 NNE 9 11 5 6 1010.7 1010.6 0.0
18/02:30pm 22.8 25.9 21.1 90 1.1 NNE 6 9 3 5 1010.8 1010.7 0.0
18/02:00pm 22.8 25.2 20.1 85 1.7 NNE 7 9 4 5 1010.9 1010.8 0.0
18/01:30pm 23.3 24.8 18.8 76 2.8 N 9 13 5 7 1011.2 1011.1 0.0
18/01:00pm 23.3 24.9 18.2 73 3.2 N 7 15 4 8 1011.5 1011.4 0.0
18/12:30pm 22.9 24.0 18.0 74 3.1 NNW 9 15 5 8 1011.8 1011.7 0.0
18/12:00pm 22.1 23.9 19.6 86 1.6 N 9 15 5 8 1012.7 1012.6 0.0
18/11:30am 21.1 23.3 19.6 91 1.0 N 7 15 4 8 1013.3 1013.2 0.0
18/11:00am 20.2 23.3 20.2 100 0.0 NW 4 9 2 5 1013.7 1013.6 0.0
18/10:30am 20.2 24.0 20.2 100 0.0 CALM 0 6 0 3 1013.6 1013.5 0.0
18/10:00am 19.7 22.5 19.7 100 0.0 WSW 4 7 2 4 1013.9 1013.8 0.0
18/09:30am 19.1 22.0 19.1 100 0.0 WSW 2 6 1 3 1014.1 1014.0 0.0
18/09:00am 18.5 21.5 18.5 100 0.0 CALM 0 6 0 3 1014.4 1014.3 14.4
18/08:30am 18.3 21.2 18.3 100 0.0 CALM 0 0 0 0 1014.5 1014.4 14.4
18/08:00am 18.0 20.4 18.0 100 0.0 W 2 7 1 4 1014.6 1014.5 14.4
18/07:30am 17.6 20.2 17.6 100 0.0 CALM 0 6 0 3 1014.8 1014.7 14.4
18/07:06am 16.9 19.3 16.9 100 0.0 CALM 0 0 0 0 1014.4 1014.3 14.4
18/07:00am 16.5 18.7 16.5 100 0.0 CALM 0 0 0 0 1014.4 1014.3 14.4
18/06:45am 16.1 18.1 16.1 100 0.0 CALM 0 0 0 0 1014.3 1014.2 14.4
18/06:30am 16.3 17.1 16.3 100 0.0 WSW 7 9 4 5 1014.2 1014.1 14.4
18/06:00am 16.5 18.7 16.5 100 0.0 CALM 0 0 0 0 1014.0 1013.9 14.4
18/05:30am 16.7 17.6 16.7 100 0.0 WSW 7 9 4 5 1013.9 1013.8 14.4
18/05:16am 16.8 19.1 16.8 100 0.0 CALM 0 6 0 3 1014.1 1014.0 14.4
18/05:00am 16.9 19.3 16.9 100 0.0 CALM 0 0 0 0 1013.9 1013.8 14.4
18/04:56am 16.7 19.0 16.7 100 0.0 CALM 0 0 0 0 1013.9 1013.8 14.4
18/04:30am 16.9 19.3 16.9 100 0.0 CALM 0 0 0 0 1014.0 1013.9 14.4
18/04:00am 17.1 19.5 17.1 100 0.0 CALM 0 0 0 0 1014.4 1014.3 14.4
18/03:30am 17.3 18.7 17.3 100 0.0 NNW 6 11 3 6 1014.4 1014.3 14.4
18/03:00am 17.4 18.6 17.4 100 0.0 NNW 7 11 4 6 1014.5 1014.4 14.4
18/02:30am 17.5 18.8 17.5 100 0.0 N 7 11 4 6 1015.2 1015.1 14.2
18/02:00am 17.6 19.1 17.6 100 0.0 N 6 9 3 5 1015.9 1015.8 14.2
18/01:30am 17.6 18.9 17.6 100 0.0 NNW 7 9 4 5 1016.6 1016.5 14.2
18/01:00am 17.7 18.7 17.7 100 0.0 NNW 9 11 5 6 1017.3 1017.2 14.2
18/12:30am 17.6 19.1 17.6 100 0.0 NNW 6 7 3 4 1017.3 1017.2 14.2
18/12:00am 17.8 19.4 17.8 100 0.0 NNW 6 7 3 4 1017.6 1017.5 14.2
 
Date/Time
EST
Tmp

°C
App
Tmp
°C
Dew
Point
°C
Rel
Hum
%
Delta-T

°C
Wind Press
QNH
hPa
Press
MSL
hPa
Rain
since
9 am
mm
Dir
 
Spd
km/h
Gust
km/h
Spd
kts
Gust
kts
17/11:30pm 17.9 19.3 17.9 100 0.0 N 7 11 4 6 1018.2 1018.1 14.2
17/11:05pm 17.9 19.3 17.9 100 0.0 N 7 13 4 7 1018.3 1018.2 14.2
17/11:00pm 17.9 19.0 17.9 100 0.0 N 9 13 5 7 1018.4 1018.3 14.2
17/10:30pm 18.0 19.1 18.0 100 0.0 NNW 9 15 5 8 1018.7 1018.6 14.2
17/10:00pm 17.9 19.0 17.9 100 0.0 N 9 13 5 7 1019.1 1019.0 14.2
17/09:37pm 17.9 19.0 17.9 100 0.0 N 9 11 5 6 1019.1 1019.0 14.2
17/09:30pm 17.9 19.0 17.9 100 0.0 N 9 15 5 8 1019.0 1018.9 14.2
17/09:16pm 17.9 19.0 17.9 100 0.0 N 9 13 5 7 1019.0 1018.9 14.2
17/09:00pm 17.9 19.3 17.9 100 0.0 NNE 7 11 4 6 1019.2 1019.1 14.2
17/08:30pm 17.9 19.0 17.9 100 0.0 N 9 15 5 8 1019.8 1019.7 14.2
17/08:00pm 17.8 19.2 17.8 100 0.0 N 7 11 4 6 1019.8 1019.7 14.2
17/07:30pm 17.6 20.2 17.6 100 0.0 CALM 0 4 0 2 1019.7 1019.6 14.0
17/07:00pm 17.6 19.9 17.6 100 0.0 WNW 2 7 1 4 1019.6 1019.5 14.0
17/06:30pm 17.6 20.2 17.6 100 0.0 CALM 0 0 0 0 1019.6 1019.5 14.0
17/06:23pm 17.7 20.4 17.7 100 0.0 CALM 0 0 0 0 1019.6 1019.5 14.0
17/06:22pm 17.6 20.2 17.6 100 0.0 CALM 0 0 0 0 1019.6 1019.5 14.0
17/06:00pm 17.7 20.4 17.7 100 0.0 CALM 0 0 0 0 1019.6 1019.5 13.8
17/05:30pm 17.8 20.5 17.8 100 0.0 CALM 0 0 0 0 1019.6 1019.5 13.6
17/05:00pm 17.9 20.7 17.9 100 0.0 CALM 0 6 0 3 1019.5 1019.4 13.6
17/04:30pm 18.1 20.2 18.1 100 0.0 WNW 4 6 2 3 1019.8 1019.7 13.6
17/04:00pm 18.1 19.8 18.1 100 0.0 NW 6 9 3 5 1020.1 1020.1 13.4
17/03:30pm 18.1 19.8 18.1 100 0.0 NNE 6 9 3 5 1020.4 1020.4 13.2
17/03:00pm 18.1 18.9 18.1 100 0.0 NE 11 15 6 8 1020.8 1020.8 13.0
17/02:30pm 17.7 20.0 17.7 100 0.0 NE 2 7 1 4 1021.2 1021.2 12.6
17/02:00pm 17.6 19.9 17.6 100 0.0 ENE 2 6 1 3 1021.6 1021.6 11.8
17/01:30pm 17.7 19.1 17.7 100 0.0 E 7 11 4 6 1021.9 1021.9 10.2
17/01:01pm 17.6 18.5 17.6 100 0.0 ENE 9 11 5 6 1022.3 1022.3 9.4
17/01:00pm 17.5 18.4 17.5 100 0.0 ENE 9 11 5 6 1022.3 1022.3 9.4
17/12:30pm 17.4 20.0 17.4 100 0.0 CALM 0 0 0 0 1022.9 1022.9 8.2
17/12:00pm 17.4 20.0 17.4 100 0.0 CALM 0 0 0 0 1023.6 1023.6 5.8
17/11:56am 17.4 20.0 17.4 100 0.0 CALM 0 0 0 0 1023.7 1023.7 5.6
17/11:36am 17.4 20.0 17.4 100 0.0 CALM 0 0 0 0 1023.9 1023.9 4.6
17/11:30am 17.4 20.0 17.4 100 0.0 CALM 0 2 0 1 1024.0 1024.0 4.6
17/11:26am 17.3 19.4 17.3 100 0.0 NNW 2 6 1 3 1024.0 1024.0 4.4
17/11:23am 17.3 19.4 17.3 100 0.0 NNW 2 7 1 4 1024.1 1024.1 4.4
17/11:00am 17.3 19.4 17.3 100 0.0 W 2 6 1 3 1024.4 1024.4 3.8
17/10:30am 17.0 19.4 17.0 100 0.0 CALM 0 6 0 3 1024.7 1024.7 2.6
17/10:25am 17.3 19.8 17.3 100 0.0 CALM 0 0 0 0 1024.8 1024.8 2.4
17/10:10am 17.1 19.5 17.1 100 0.0 CALM 0 0 0 0 1024.9 1024.9 2.0
17/10:00am 17.1 19.5 17.1 100 0.0 CALM 0 0 0 0 1025.0 1025.0 1.8
17/09:54am 17.1 19.5 17.1 100 0.0 CALM 0 0 0 0 1025.1 1025.1 1.6
17/09:32am 16.9 18.5 16.9 100 0.0 WSW 4 7 2 4 1025.1 1025.1 1.0
17/09:30am 16.9 18.9 16.9 100 0.0 WSW 2 7 1 4 1025.1 1025.1 1.0
17/09:06am 17.0 19.0 17.0 100 0.0 WSW 2 6 1 3 1025.2 1025.2 0.0
17/09:00am 17.0 18.3 17.0 100 0.0 W 6 7 3 4 1025.2 1025.2 5.4
17/08:30am 16.9 17.9 16.9 100 0.0 WSW 7 9 4 5 1025.3 1025.3 4.6
17/08:00am 16.6 17.7 16.6 100 0.0 W 6 7 3 4 1025.0 1025.0 4.0
17/07:54am 16.5 17.6 16.5 100 0.0 W 6 7 3 4 1025.0 1025.0 4.0
17/07:30am 16.5 18.7 16.5 100 0.0 CALM 0 6 0 3 1024.8 1024.8 3.4
17/07:29am 16.5 18.7 16.5 100 0.0 CALM 0 4 0 2 1024.8 1024.8 3.4
17/07:28am 16.4 18.6 16.4 100 0.0 CALM 0 0 0 0 1024.8 1024.8 3.4
17/07:10am 16.4 17.8 16.4 100 0.0 WSW 4 7 2 4 1024.8 1024.8 3.0
17/07:09am 16.4 17.8 16.4 100 0.0 WSW 4 7 2 4 1024.8 1024.8 2.8
17/07:00am 16.3 17.3 16.3 100 0.0 WSW 6 7 3 4 1024.7 1024.7 2.6
17/06:49am 16.3 17.1 16.3 100 0.0 WSW 7 11 4 6 1024.5 1024.5 2.2
17/06:30am 16.4 17.2 16.4 100 0.0 WSW 7 9 4 5 1024.5 1024.5 1.6
17/06:00am 16.5 17.4 16.5 100 0.0 WSW 7 11 4 6 1024.3 1024.3 1.4
17/05:30am 16.6 17.5 16.6 100 0.0 W 7 9 4 5 1024.2 1024.2 1.0

Latest Capital City Observations: Canberra | Sydney | Melbourne | Brisbane | Adelaide | Perth | Hobart | Darwin

Other Formats:

Comma delimited format used in spreadsheet applications
http://www.bom.gov.au/fwo/IDN60903/IDN60903.95937.axf

JavaScript Object Notation format (JSON) in row-major order
http://www.bom.gov.au/fwo/IDN60903/IDN60903.95937.json